Time;durP1;ratioP1;P1;durP2;ratioP2;P2;SDS_P1;SDS_P2;PMS_P1;PMS_P2;Temp;Humidity;BMP_temperature;BMP_pressure;BME280_temperature;BME280_humidity;BME280_pressure;Samples;Min_cycle;Max_cycle;Signal;HPM_P1;HPM_P2
2023/02/03 08:31:11;;;;;;;4.76;1.00;;;;;;;;;;173696;27;10003051;-82
2023/02/03 08:31:26;;;;;;;3.33;1.40;;;;;;;;;;525060;28;1751;-76
2023/02/03 08:42:17;;;;;;;3.13;0.82;;;;;;;;;;528300;27;20834;-73
2023/02/03 08:42:33;;;;;;;3.25;0.95;;;;;;;;;;526366;27;1514;-74
2023/02/03 08:42:48;;;;;;;3.25;0.98;;;;;;;;;;524684;28;1447;-73
2023/02/03 08:43:03;;;;;;;2.40;0.80;;;;;;;;;;525140;28;1510;-72
2023/02/03 08:43:19;;;;;;;2.33;0.80;;;;;;;;;;521993;28;1627;-72
2023/02/03 08:43:35;;;;;;;3.03;0.80;;;;;;;;;;524361;28;1749;-72
2023/02/03 08:43:50;;;;;;;3.08;0.80;;;;;;;;;;521214;28;1436;-72
2023/02/03 08:44:05;;;;;;;2.53;0.93;;;;;;;;;;521574;28;1266;-73
2023/02/03 08:44:21;;;;;;;3.40;1.03;;;;;;;;;;521310;28;1420;-74
2023/02/03 08:44:38;;;;;;;3.55;1.10;;;;;;;;;;522834;28;1346;-73
2023/02/03 08:44:53;;;;;;;2.88;0.98;;;;;;;;;;518827;28;1535;-74
2023/02/03 08:45:11;;;;;;;3.03;0.90;;;;;;;;;;522188;28;1618;-74
2023/02/03 08:45:26;;;;;;;3.08;0.95;;;;;;;;;;520175;28;1458;-72
2023/02/03 08:45:42;;;;;;;3.07;1.00;;;;;;;;;;520984;28;1286;-72
2023/02/03 08:46:02;;;;;;;3.35;0.90;;;;;;;;;;520576;28;1314;-72
2023/02/03 08:46:17;;;;;;;3.28;0.90;;;;;;;;;;521060;28;1443;-73
2023/02/03 08:46:33;;;;;;;3.07;0.87;;;;;;;;;;523521;28;1098;-73
2023/02/03 08:46:52;;;;;;;3.90;1.43;;;;;;;;;;525315;28;1688;-71
2023/02/03 08:47:08;;;;;;;5.70;2.78;;;;;;;;;;527156;28;1370;-72
2023/02/03 08:47:23;;;;;;;5.18;2.20;;;;;;;;;;526435;28;1300;-71
2023/02/03 08:47:39;;;;;;;3.33;1.00;;;;;;;;;;522527;28;1320;-73
2023/02/03 08:47:54;;;;;;;3.30;0.90;;;;;;;;;;524148;28;1379;-72
2023/02/03 08:48:10;;;;;;;3.63;1.07;;;;;;;;;;525250;28;1288;-71
2023/02/03 08:48:25;;;;;;;3.33;1.02;;;;;;;;;;522542;28;1782;-71
2023/02/03 08:48:40;;;;;;;2.90;0.97;;;;;;;;;;521881;28;1094;-71
2023/02/03 08:48:56;;;;;;;2.33;0.80;;;;;;;;;;521057;28;1357;-71
2023/02/03 08:49:11;;;;;;;2.85;0.90;;;;;;;;;;519843;28;1417;-72
2023/02/03 08:49:28;;;;;;;3.00;1.00;;;;;;;;;;521834;28;1105;-72
2023/02/03 08:49:44;;;;;;;2.35;1.00;;;;;;;;;;523913;28;1442;-71
2023/02/03 08:49:59;;;;;;;2.42;0.95;;;;;;;;;;522331;28;1643;-71
2023/02/03 08:50:15;;;;;;;2.73;0.90;;;;;;;;;;521617;28;1261;-72
2023/02/03 08:50:30;;;;;;;3.10;0.93;;;;;;;;;;523060;28;1411;-71
2023/02/03 08:50:51;;;;;;;3.33;0.97;;;;;;;;;;523417;28;1109;-71
2023/02/03 08:51:12;;;;;;;2.80;1.00;;;;;;;;;;522027;28;1246;-71
2023/02/03 08:51:28;;;;;;;3.65;0.90;;;;;;;;;;523607;28;1096;-73
2023/02/03 08:51:44;;;;;;;3.28;0.80;;;;;;;;;;524792;28;2089;-73
2023/02/03 08:52:00;;;;;;;2.75;0.90;;;;;;;;;;519305;28;1283;-73
2023/02/03 08:52:15;;;;;;;3.78;1.00;;;;;;;;;;524294;28;1294;-72
2023/02/03 08:52:31;;;;;;;3.90;1.00;;;;;;;;;;522896;28;1387;-71
2023/02/03 08:52:46;;;;;;;4.03;1.00;;;;;;;;;;522738;28;1605;-73
2023/02/03 08:53:01;;;;;;;3.93;1.10;;;;;;;;;;524440;28;1145;-72
2023/02/03 08:53:17;;;;;;;3.50;0.95;;;;;;;;;;522077;28;1768;-73
2023/02/03 08:53:32;;;;;;;3.07;0.90;;;;;;;;;;523893;28;1316;-73
2023/02/03 08:53:47;;;;;;;3.00;1.02;;;;;;;;;;522252;28;1104;-71
2023/02/03 08:54:03;;;;;;;3.03;1.00;;;;;;;;;;524435;28;1258;-71
2023/02/03 08:54:18;;;;;;;2.90;0.90;;;;;;;;;;522555;28;1380;-71
2023/02/03 08:54:34;;;;;;;2.83;0.90;;;;;;;;;;522845;28;1206;-73
2023/02/03 08:54:49;;;;;;;2.50;0.80;;;;;;;;;;523128;28;1657;-72
2023/02/03 08:55:05;;;;;;;2.80;0.80;;;;;;;;;;522961;28;1105;-72
2023/02/03 08:55:20;;;;;;;2.95;0.80;;;;;;;;;;520180;28;1376;-74
2023/02/03 08:55:39;;;;;;;2.87;0.70;;;;;;;;;;520952;28;1269;-73
2023/02/03 08:55:55;;;;;;;3.08;0.80;;;;;;;;;;518478;28;1446;-72
2023/02/03 08:56:11;;;;;;;2.60;0.80;;;;;;;;;;522891;28;1595;-72
2023/02/03 08:56:26;;;;;;;2.95;0.85;;;;;;;;;;521293;28;1706;-72
2023/02/03 08:56:42;;;;;;;2.70;0.80;;;;;;;;;;522598;28;1416;-73
2023/02/03 08:56:57;;;;;;;2.20;0.70;;;;;;;;;;519455;28;1272;-71
2023/02/03 08:57:13;;;;;;;2.58;0.68;;;;;;;;;;518726;28;1515;-73
2023/02/03 08:57:35;;;;;;;2.53;0.80;;;;;;;;;;519842;28;1359;-72
2023/02/03 08:57:50;;;;;;;2.20;0.80;;;;;;;;;;519665;28;1363;-72
2023/02/03 08:58:05;;;;;;;2.70;0.80;;;;;;;;;;522754;28;2091;-72
2023/02/03 08:58:21;;;;;;;3.40;0.80;;;;;;;;;;522568;28;1334;-72
2023/02/03 08:58:37;;;;;;;3.50;0.83;;;;;;;;;;520558;28;1354;-72
2023/02/03 08:58:53;;;;;;;3.60;0.90;;;;;;;;;;521318;28;1157;-73
2023/02/03 08:59:09;;;;;;;3.70;0.88;;;;;;;;;;520131;28;1615;-73
2023/02/03 08:59:25;;;;;;;3.33;0.75;;;;;;;;;;519612;28;1290;-72
2023/02/03 08:59:42;;;;;;;3.00;0.80;;;;;;;;;;519770;28;1625;-72
2023/02/03 08:59:57;;;;;;;2.95;0.73;;;;;;;;;;521324;28;1298;-73
2023/02/03 09:00:13;;;;;;;2.40;0.60;;;;;;;;;;525199;28;1356;-72
2023/02/03 09:00:28;;;;;;;2.13;0.80;;;;;;;;;;525133;28;1355;-72
2023/02/03 09:00:43;;;;;;;2.20;0.80;;;;;;;;;;524121;28;1142;-73
2023/02/03 09:01:10;;;;;;;1.83;0.77;;;;;;;;;;521627;28;1373;-72
2023/02/03 09:01:25;;;;;;;2.90;0.70;;;;;;;;;;520707;28;1392;-72
2023/02/03 09:01:44;;;;;;;3.35;0.90;;;;;;;;;;520070;28;1267;-73
2023/02/03 09:01:59;;;;;;;3.10;0.80;;;;;;;;;;522605;28;1416;-73
2023/02/03 09:02:17;;;;;;;2.90;0.80;;;;;;;;;;523593;28;1394;-73
2023/02/03 09:02:33;;;;;;;4.05;0.80;;;;;;;;;;523367;28;1494;-73
2023/02/03 09:02:49;;;;;;;4.18;0.80;;;;;;;;;;522984;28;1796;-72
2023/02/03 09:03:04;;;;;;;3.15;0.80;;;;;;;;;;524680;28;1197;-72
2023/02/03 09:03:20;;;;;;;2.40;0.87;;;;;;;;;;523907;28;1188;-72
2023/02/03 09:03:36;;;;;;;3.80;1.00;;;;;;;;;;522563;28;1543;-72
2023/02/03 09:03:51;;;;;;;3.53;0.90;;;;;;;;;;521119;28;1416;-73
2023/02/03 09:04:07;;;;;;;2.40;0.70;;;;;;;;;;520004;28;1383;-73
2023/02/03 09:04:23;;;;;;;3.08;0.80;;;;;;;;;;518707;28;1405;-74
2023/02/03 09:04:39;;;;;;;3.35;0.95;;;;;;;;;;521719;28;1295;-70
2023/02/03 09:04:54;;;;;;;3.63;0.80;;;;;;;;;;523903;28;1407;-70
2023/02/03 09:05:10;;;;;;;3.70;0.82;;;;;;;;;;520947;28;1356;-70
2023/02/03 09:05:25;;;;;;;3.17;1.00;;;;;;;;;;520619;28;1277;-70
2023/02/03 09:05:40;;;;;;;4.00;0.93;;;;;;;;;;519145;28;1249;-71
2023/02/03 09:05:56;;;;;;;3.70;0.90;;;;;;;;;;521765;28;1602;-73
2023/02/03 09:06:15;;;;;;;2.65;0.75;;;;;;;;;;522982;28;1166;-73
2023/02/03 09:06:30;;;;;;;3.45;0.80;;;;;;;;;;521301;28;1293;-74
2023/02/03 09:06:46;;;;;;;3.97;0.80;;;;;;;;;;519472;28;1254;-73
2023/02/03 09:07:03;;;;;;;3.53;0.90;;;;;;;;;;520604;28;1215;-73
2023/02/03 09:07:18;;;;;;;4.07;0.90;;;;;;;;;;521112;28;1682;-73
2023/02/03 09:07:33;;;;;;;3.40;0.80;;;;;;;;;;519906;28;1787;-74
2023/02/03 09:07:49;;;;;;;3.03;0.80;;;;;;;;;;517470;28;1240;-73
2023/02/03 09:08:04;;;;;;;4.17;0.90;;;;;;;;;;518990;28;1485;-74
2023/02/03 09:08:19;;;;;;;3.17;0.80;;;;;;;;;;519924;28;1615;-73
2023/02/03 09:08:35;;;;;;;2.23;0.80;;;;;;;;;;519447;28;1699;-74
2023/02/03 09:08:50;;;;;;;2.42;0.90;;;;;;;;;;521696;28;1212;-73
2023/02/03 09:09:05;;;;;;;2.10;0.70;;;;;;;;;;521087;28;1111;-73
2023/02/03 09:09:22;;;;;;;2.97;0.80;;;;;;;;;;522957;28;1441;-74
2023/02/03 09:09:38;;;;;;;3.60;0.90;;;;;;;;;;523498;28;1466;-73
2023/02/03 09:09:53;;;;;;;3.67;0.90;;;;;;;;;;523860;28;1189;-73
2023/02/03 09:10:09;;;;;;;4.25;0.93;;;;;;;;;;520877;28;1190;-73
2023/02/03 09:10:27;;;;;;;3.50;1.00;;;;;;;;;;524053;28;1376;-74
2023/02/03 09:10:42;;;;;;;2.67;0.80;;;;;;;;;;522910;28;1452;-72
2023/02/03 09:10:58;;;;;;;2.80;0.80;;;;;;;;;;522986;28;1524;-72
2023/02/03 09:11:16;;;;;;;3.23;0.80;;;;;;;;;;523549;28;1399;-71
2023/02/03 09:11:32;;;;;;;3.08;0.70;;;;;;;;;;522237;28;1312;-73
2023/02/03 09:11:47;;;;;;;3.23;0.70;;;;;;;;;;520871;28;1929;-71
2023/02/03 09:12:05;;;;;;;2.97;0.83;;;;;;;;;;520416;28;1187;-72
2023/02/03 09:12:20;;;;;;;2.45;0.75;;;;;;;;;;522636;28;1411;-71
2023/02/03 09:12:36;;;;;;;1.90;0.60;;;;;;;;;;524122;28;1992;-72
2023/02/03 09:12:51;;;;;;;2.60;0.70;;;;;;;;;;522574;28;1325;-72
2023/02/03 09:13:06;;;;;;;3.47;0.77;;;;;;;;;;521660;28;1459;-74
2023/02/03 09:13:22;;;;;;;3.47;0.80;;;;;;;;;;521519;28;1535;-73
2023/02/03 09:13:38;;;;;;;3.25;0.80;;;;;;;;;;521674;28;1768;-71
2023/02/03 09:13:55;;;;;;;2.53;0.77;;;;;;;;;;521688;28;1374;-72
2023/02/03 09:14:10;;;;;;;2.38;0.80;;;;;;;;;;524103;28;1983;-72
2023/02/03 09:14:28;;;;;;;2.43;0.90;;;;;;;;;;522058;28;1454;-72
2023/02/03 09:14:43;;;;;;;2.85;0.90;;;;;;;;;;523150;28;1257;-72
2023/02/03 09:14:58;;;;;;;3.17;1.00;;;;;;;;;;525184;28;1164;-72
2023/02/03 09:15:14;;;;;;;2.58;0.85;;;;;;;;;;525690;28;1046;-74
2023/02/03 09:15:29;;;;;;;2.07;0.70;;;;;;;;;;523189;28;1236;-72
2023/02/03 09:15:44;;;;;;;2.73;0.87;;;;;;;;;;521541;28;1964;-72
2023/02/03 09:16:00;;;;;;;4.18;1.10;;;;;;;;;;520419;28;1650;-72
2023/02/03 09:16:17;;;;;;;4.53;1.00;;;;;;;;;;522640;28;1209;-72
2023/02/03 09:16:32;;;;;;;4.07;0.82;;;;;;;;;;523446;28;1237;-73
2023/02/03 09:16:48;;;;;;;3.33;0.80;;;;;;;;;;523944;28;1265;-72
2023/02/03 09:17:06;;;;;;;3.10;0.90;;;;;;;;;;523279;28;1022;-72
2023/02/03 09:17:21;;;;;;;2.70;0.90;;;;;;;;;;520326;28;1615;-72
2023/02/03 09:17:36;;;;;;;2.88;0.90;;;;;;;;;;524954;28;1241;-72
2023/02/03 09:17:54;;;;;;;2.50;0.80;;;;;;;;;;523581;28;1491;-72
2023/02/03 09:18:09;;;;;;;2.75;0.80;;;;;;;;;;524267;28;1134;-72
2023/02/03 09:18:24;;;;;;;3.35;0.80;;;;;;;;;;522483;28;1431;-72
2023/02/03 09:18:40;;;;;;;2.83;0.87;;;;;;;;;;523417;28;1101;-72
2023/02/03 09:18:55;;;;;;;3.57;0.87;;;;;;;;;;524358;28;1859;-73
2023/02/03 09:19:12;;;;;;;4.37;0.80;;;;;;;;;;521274;28;1428;-72
2023/02/03 09:19:27;;;;;;;3.63;0.80;;;;;;;;;;522573;28;1328;-72
2023/02/03 09:19:43;;;;;;;2.90;0.85;;;;;;;;;;524895;28;1344;-72
2023/02/03 09:19:58;;;;;;;3.10;0.87;;;;;;;;;;523702;28;1263;-72
2023/02/03 09:20:13;;;;;;;2.95;0.90;;;;;;;;;;525334;28;1307;-72
2023/02/03 09:20:29;;;;;;;3.23;0.90;;;;;;;;;;526653;28;3576;-72
2023/02/03 09:20:44;;;;;;;3.27;0.80;;;;;;;;;;525580;28;1195;-72
2023/02/03 09:21:01;;;;;;;2.78;0.80;;;;;;;;;;526756;28;1290;-72
2023/02/03 09:21:17;;;;;;;2.97;0.80;;;;;;;;;;523823;28;1286;-72
2023/02/03 09:21:32;;;;;;;4.00;0.90;;;;;;;;;;524182;28;1387;-72
2023/02/03 09:21:48;;;;;;;3.93;0.90;;;;;;;;;;522279;28;1258;-72
2023/02/03 09:22:03;;;;;;;2.77;0.90;;;;;;;;;;523860;28;1811;-73
2023/02/03 09:22:19;;;;;;;2.28;0.80;;;;;;;;;;522349;28;1528;-72
2023/02/03 09:22:34;;;;;;;3.43;0.87;;;;;;;;;;522905;28;1455;-72
2023/02/03 09:22:49;;;;;;;4.45;0.93;;;;;;;;;;521136;28;1270;-72
2023/02/03 09:23:04;;;;;;;3.63;0.90;;;;;;;;;;522046;28;1526;-72
2023/02/03 09:23:20;;;;;;;3.57;0.90;;;;;;;;;;523525;28;1395;-72
2023/02/03 09:23:35;;;;;;;3.28;0.80;;;;;;;;;;521453;28;1786;-72
2023/02/03 09:23:51;;;;;;;2.77;0.70;;;;;;;;;;519154;28;1267;-73
2023/02/03 09:24:07;;;;;;;2.58;0.70;;;;;;;;;;519523;28;1206;-71
2023/02/03 09:24:23;;;;;;;2.08;0.70;;;;;;;;;;517776;28;1588;-72
2023/02/03 09:24:38;;;;;;;2.50;0.80;;;;;;;;;;520630;28;1468;-72
2023/02/03 09:24:54;;;;;;;2.83;0.77;;;;;;;;;;519209;28;1381;-72
2023/02/03 09:25:09;;;;;;;3.30;0.70;;;;;;;;;;520644;28;1457;-72
2023/02/03 09:25:24;;;;;;;3.83;0.70;;;;;;;;;;518761;28;1598;-72
2023/02/03 09:25:39;;;;;;;2.50;0.70;;;;;;;;;;521538;28;1352;-72
2023/02/03 09:25:55;;;;;;;1.77;0.80;;;;;;;;;;523358;28;1210;-73
2023/02/03 09:26:12;;;;;;;2.10;0.70;;;;;;;;;;525452;27;1389;-72
2023/02/03 09:26:28;;;;;;;3.72;0.70;;;;;;;;;;527306;27;1295;-72
2023/02/03 09:26:43;;;;;;;4.60;0.88;;;;;;;;;;526325;28;1323;-71
2023/02/03 09:27:00;;;;;;;3.43;0.80;;;;;;;;;;526429;28;1816;-73
2023/02/03 09:27:15;;;;;;;2.97;0.73;;;;;;;;;;524075;28;1671;-73
2023/02/03 09:27:30;;;;;;;2.87;0.80;;;;;;;;;;522645;28;1179;-72
2023/02/03 09:27:46;;;;;;;3.37;0.90;;;;;;;;;;523639;28;1364;-73
2023/02/03 09:28:01;;;;;;;3.90;0.95;;;;;;;;;;524442;28;1311;-72
2023/02/03 09:28:16;;;;;;;3.40;0.83;;;;;;;;;;520362;28;1276;-72
2023/02/03 09:28:33;;;;;;;2.45;0.70;;;;;;;;;;523971;28;1722;-73
2023/02/03 09:28:48;;;;;;;3.47;0.60;;;;;;;;;;524015;28;1275;-73
2023/02/03 09:29:04;;;;;;;4.00;0.70;;;;;;;;;;523980;28;1481;-73
2023/02/03 09:29:19;;;;;;;2.40;0.77;;;;;;;;;;524817;28;1257;-72
2023/02/03 09:29:34;;;;;;;2.33;0.80;;;;;;;;;;519456;28;1441;-72
2023/02/03 09:29:50;;;;;;;2.93;0.87;;;;;;;;;;521670;28;1507;-73
2023/02/03 09:30:05;;;;;;;3.17;0.80;;;;;;;;;;520188;28;1610;-72
2023/02/03 09:30:21;;;;;;;2.40;0.70;;;;;;;;;;520626;28;1481;-72
2023/02/03 09:30:36;;;;;;;2.33;0.70;;;;;;;;;;524194;28;1462;-74
2023/02/03 09:30:51;;;;;;;2.83;0.70;;;;;;;;;;522007;28;1298;-73
2023/02/03 09:31:13;;;;;;;2.83;0.70;;;;;;;;;;521223;28;1206;-73
2023/02/03 09:31:28;;;;;;;3.05;0.70;;;;;;;;;;521235;28;1372;-73
2023/02/03 09:31:45;;;;;;;3.20;0.80;;;;;;;;;;522433;28;1963;-73
2023/02/03 09:32:05;;;;;;;3.45;0.80;;;;;;;;;;521724;28;1442;-73
2023/02/03 09:32:21;;;;;;;3.70;0.80;;;;;;;;;;521508;28;1253;-72
2023/02/03 09:32:36;;;;;;;3.00;0.70;;;;;;;;;;518596;28;1508;-72
2023/02/03 09:32:53;;;;;;;2.43;0.70;;;;;;;;;;520785;28;1384;-73
2023/02/03 09:33:08;;;;;;;2.30;0.70;;;;;;;;;;520470;28;1315;-72
2023/02/03 09:33:23;;;;;;;2.17;0.60;;;;;;;;;;522721;28;2012;-73
2023/02/03 09:33:39;;;;;;;2.35;0.60;;;;;;;;;;525152;28;1204;-73
2023/02/03 09:33:55;;;;;;;3.03;0.70;;;;;;;;;;519568;28;1345;-71
2023/02/03 09:34:10;;;;;;;3.37;0.83;;;;;;;;;;521474;28;1440;-72
2023/02/03 09:34:25;;;;;;;3.63;0.93;;;;;;;;;;522388;28;1387;-71
2023/02/03 09:34:40;;;;;;;3.30;0.82;;;;;;;;;;524414;28;1387;-71
2023/02/03 09:34:56;;;;;;;4.37;0.80;;;;;;;;;;521841;28;1535;-72
2023/02/03 09:35:11;;;;;;;5.23;1.03;;;;;;;;;;522141;28;1338;-72
2023/02/03 09:35:28;;;;;;;4.15;1.02;;;;;;;;;;523152;28;1490;-73
2023/02/03 09:35:53;;;;;;;2.97;0.85;;;;;;;;;;524010;28;1369;-72
2023/02/03 09:36:09;;;;;;;3.17;0.70;;;;;;;;;;527438;27;1357;-72
2023/02/03 09:36:25;;;;;;;3.80;0.85;;;;;;;;;;528239;27;1842;-72
2023/02/03 09:36:40;;;;;;;3.70;1.00;;;;;;;;;;527021;27;1324;-72
2023/02/03 09:36:55;;;;;;;3.03;0.95;;;;;;;;;;527888;27;1330;-72
2023/02/03 09:37:11;;;;;;;3.20;0.90;;;;;;;;;;525793;27;1414;-72
2023/02/03 09:37:28;;;;;;;3.63;0.90;;;;;;;;;;523224;28;1368;-72
2023/02/03 09:37:44;;;;;;;3.40;0.80;;;;;;;;;;523116;28;1326;-72
2023/02/03 09:38:00;;;;;;;2.47;0.70;;;;;;;;;;524448;28;1665;-72
2023/02/03 09:38:15;;;;;;;3.20;0.70;;;;;;;;;;523948;28;1239;-72
2023/02/03 09:38:31;;;;;;;3.67;0.80;;;;;;;;;;523830;28;1336;-72
2023/02/03 09:38:46;;;;;;;3.13;0.90;;;;;;;;;;523267;28;1285;-72
2023/02/03 09:39:02;;;;;;;3.33;0.90;;;;;;;;;;523186;28;1085;-72
2023/02/03 09:39:17;;;;;;;2.87;0.90;;;;;;;;;;525897;28;1494;-72
2023/02/03 09:39:32;;;;;;;2.93;0.90;;;;;;;;;;527576;28;1358;-72
2023/02/03 09:39:48;;;;;;;3.60;0.90;;;;;;;;;;525168;28;1966;-72
2023/02/03 09:40:03;;;;;;;3.47;0.90;;;;;;;;;;526523;27;1221;-73
2023/02/03 09:40:23;;;;;;;3.90;0.90;;;;;;;;;;528680;27;1395;-71
2023/02/03 09:40:38;;;;;;;3.03;0.90;;;;;;;;;;526148;28;1280;-73
2023/02/03 09:40:58;;;;;;;3.47;0.90;;;;;;;;;;523835;28;1089;-72
2023/02/03 09:41:38;;;;;;;3.35;0.85;;;;;;;;;;522823;28;1898;-72
2023/02/03 09:42:24;;;;;;;4.05;0.80;;;;;;;;;;523635;28;1252;-72
2023/02/03 09:43:21;;;;;;;2.47;0.80;;;;;;;;;;524418;28;1519;-72
2023/02/03 09:43:53;;;;;;;3.25;0.88;;;;;;;;;;516261;28;1320;-72
2023/02/03 09:44:28;;;;;;;2.97;0.90;;;;;;;;;;518153;28;1370;-72
2023/02/03 09:44:57;;;;;;;3.92;0.90;;;;;;;;;;517914;28;1361;-73
2023/02/03 09:45:13;;;;;;;2.90;0.70;;;;;;;;;;518795;28;1685;-72
2023/02/03 09:45:29;;;;;;;2.03;0.70;;;;;;;;;;517579;28;1311;-73
2023/02/03 09:45:44;;;;;;;2.67;0.80;;;;;;;;;;518731;28;1314;-74
2023/02/03 09:46:06;;;;;;;3.13;0.80;;;;;;;;;;517214;28;1809;-74
2023/02/03 09:46:24;;;;;;;3.33;0.90;;;;;;;;;;519099;28;1275;-72
2023/02/03 09:46:44;;;;;;;2.90;0.88;;;;;;;;;;518424;28;1387;-73
2023/02/03 09:47:02;;;;;;;3.28;0.90;;;;;;;;;;518074;28;1381;-73
2023/02/03 09:47:23;;;;;;;3.05;0.80;;;;;;;;;;519404;28;1381;-73
2023/02/03 09:47:42;;;;;;;2.75;0.82;;;;;;;;;;520456;28;1571;-72
2023/02/03 09:48:24;;;;;;;2.67;0.80;;;;;;;;;;521422;28;1152;-72
2023/02/03 09:48:44;;;;;;;3.55;0.95;;;;;;;;;;525936;27;1709;-73
2023/02/03 09:49:21;;;;;;;4.63;1.00;;;;;;;;;;528671;27;1395;-73
2023/02/03 09:49:38;;;;;;;4.60;0.90;;;;;;;;;;526187;27;1116;-73
2023/02/03 09:50:00;;;;;;;3.45;0.80;;;;;;;;;;526236;27;1077;-73
2023/02/03 09:50:25;;;;;;;1.95;0.70;;;;;;;;;;525872;28;1370;-73
2023/02/03 09:50:42;;;;;;;3.03;0.80;;;;;;;;;;524800;28;1350;-73
2023/02/03 09:50:58;;;;;;;4.40;0.90;;;;;;;;;;527166;27;1694;-72
2023/02/03 09:51:21;;;;;;;4.43;0.97;;;;;;;;;;524583;28;1391;-72
2023/02/03 09:51:51;;;;;;;3.97;1.00;;;;;;;;;;521644;28;1336;-72
2023/02/03 09:52:14;;;;;;;2.55;0.85;;;;;;;;;;520602;28;1146;-72
2023/02/03 09:52:36;;;;;;;2.42;0.80;;;;;;;;;;522073;28;1380;-72
2023/02/03 09:52:52;;;;;;;3.38;0.90;;;;;;;;;;522774;28;1285;-72
2023/02/03 09:53:22;;;;;;;4.40;1.00;;;;;;;;;;523660;28;1149;-72
2023/02/03 09:53:44;;;;;;;2.55;0.80;;;;;;;;;;526379;27;1342;-72
2023/02/03 09:54:06;;;;;;;3.00;0.77;;;;;;;;;;526505;27;1055;-72
2023/02/03 09:54:30;;;;;;;3.28;0.80;;;;;;;;;;526921;27;1307;-71
2023/02/03 09:54:53;;;;;;;2.60;0.80;;;;;;;;;;526621;27;1208;-72
2023/02/03 09:55:30;;;;;;;3.80;1.00;;;;;;;;;;525479;28;1343;-72
2023/02/03 09:55:47;;;;;;;2.85;0.85;;;;;;;;;;524120;27;1798;-73
2023/02/03 09:56:02;;;;;;;3.70;0.90;;;;;;;;;;523818;28;1407;-73
2023/02/03 09:56:31;;;;;;;3.53;0.83;;;;;;;;;;526339;27;1371;-73
2023/02/03 09:56:51;;;;;;;3.00;0.87;;;;;;;;;;526281;27;1092;-72
2023/02/03 09:57:16;;;;;;;3.70;0.90;;;;;;;;;;526272;27;1335;-72
2023/02/03 09:57:42;;;;;;;2.63;0.80;;;;;;;;;;526232;27;1664;-72
2023/02/03 09:58:04;;;;;;;2.85;0.85;;;;;;;;;;525103;28;1316;-71
2023/02/03 09:58:21;;;;;;;3.50;1.33;;;;;;;;;;523604;28;1403;-72
2023/02/03 09:58:37;;;;;;;5.07;3.00;;;;;;;;;;524434;28;1920;-71
2023/02/03 09:58:52;;;;;;;4.67;2.47;;;;;;;;;;520685;28;1262;-74
2023/02/03 09:59:09;;;;;;;3.30;1.03;;;;;;;;;;522069;28;3453;-74
2023/02/03 09:59:34;;;;;;;3.22;0.93;;;;;;;;;;522324;28;1416;-74
2023/02/03 09:59:50;;;;;;;4.25;0.93;;;;;;;;;;522524;28;1324;-74
2023/02/03 10:00:20;;;;;;;3.58;0.90;;;;;;;;;;521064;28;1437;-73
2023/02/03 10:00:39;;;;;;;3.50;0.80;;;;;;;;;;521411;28;1732;-74
2023/02/03 10:01:04;;;;;;;3.33;0.88;;;;;;;;;;522378;28;1614;-74
2023/02/03 10:01:21;;;;;;;2.60;0.98;;;;;;;;;;523361;28;1188;-75
2023/02/03 10:01:48;;;;;;;3.13;0.90;;;;;;;;;;521889;28;1598;-74
2023/02/03 10:02:12;;;;;;;3.33;0.90;;;;;;;;;;520717;28;1690;-74
2023/02/03 10:02:46;;;;;;;3.05;0.90;;;;;;;;;;522151;28;1166;-73
2023/02/03 10:03:13;;;;;;;3.88;0.77;;;;;;;;;;523396;28;1343;-73
2023/02/03 10:03:31;;;;;;;3.40;0.88;;;;;;;;;;522455;28;1325;-73
2023/02/03 10:03:58;;;;;;;3.53;0.90;;;;;;;;;;521177;28;1729;-73
2023/02/03 10:04:40;;;;;;;2.90;0.90;;;;;;;;;;519283;28;1066;-73
2023/02/03 10:05:13;;;;;;;4.20;0.93;;;;;;;;;;518031;28;1357;-72
2023/02/03 10:05:31;;;;;;;3.50;0.80;;;;;;;;;;519093;28;1773;-73
2023/02/03 10:06:15;;;;;;;3.10;0.90;;;;;;;;;;520727;28;1386;-73
2023/02/03 10:06:40;;;;;;;2.60;0.77;;;;;;;;;;522445;28;1343;-73
2023/02/03 10:07:25;;;;;;;3.78;0.70;;;;;;;;;;524699;28;1735;-73
2023/02/03 10:07:49;;;;;;;4.65;0.88;;;;;;;;;;525745;27;1324;-74
2023/02/03 10:08:39;;;;;;;2.80;0.70;;;;;;;;;;524056;28;1284;-73
2023/02/03 10:09:10;;;;;;;4.70;0.90;;;;;;;;;;523651;28;1321;-74
2023/02/03 10:09:57;;;;;;;3.30;0.80;;;;;;;;;;522906;28;1277;-74
2023/02/03 10:10:43;;;;;;;2.40;0.80;;;;;;;;;;523909;28;1575;-74
2023/02/03 10:11:17;;;;;;;3.45;0.93;;;;;;;;;;523595;28;1157;-73
2023/02/03 10:11:49;;;;;;;2.50;0.80;;;;;;;;;;521872;28;1301;-74
2023/02/03 10:12:39;;;;;;;3.22;0.80;;;;;;;;;;521987;28;1419;-75
2023/02/03 10:12:58;;;;;;;3.60;0.98;;;;;;;;;;524374;27;1474;-75
2023/02/03 10:13:39;;;;;;;3.13;0.90;;;;;;;;;;524222;28;1392;-75
2023/02/03 10:14:19;;;;;;;3.20;0.80;;;;;;;;;;523861;28;1065;-76
2023/02/03 10:14:46;;;;;;;2.90;0.90;;;;;;;;;;524559;28;1379;-75
2023/02/03 10:15:25;;;;;;;2.85;0.77;;;;;;;;;;522621;28;1618;-75
2023/02/03 10:15:56;;;;;;;2.60;0.88;;;;;;;;;;523416;28;1200;-76
2023/02/03 10:16:37;;;;;;;3.05;0.70;;;;;;;;;;526453;27;1398;-74
2023/02/03 10:17:17;;;;;;;2.58;0.73;;;;;;;;;;516225;28;1208;-74
2023/02/03 10:17:38;;;;;;;3.15;0.80;;;;;;;;;;524155;28;1314;-75
2023/02/03 10:17:59;;;;;;;3.65;0.90;;;;;;;;;;523761;28;1201;-73
2023/02/03 10:18:27;;;;;;;3.10;0.80;;;;;;;;;;521457;28;1744;-74
2023/02/03 10:18:49;;;;;;;3.45;0.75;;;;;;;;;;522554;28;1429;-75
2023/02/03 10:19:11;;;;;;;3.03;0.70;;;;;;;;;;524741;28;1096;-75
2023/02/03 10:19:36;;;;;;;3.08;0.80;;;;;;;;;;525998;28;1386;-76
2023/02/03 10:19:59;;;;;;;2.92;0.95;;;;;;;;;;525848;27;1898;-74
2023/02/03 10:20:24;;;;;;;2.67;0.70;;;;;;;;;;526568;28;1400;-74
2023/02/03 10:20:45;;;;;;;3.20;0.70;;;;;;;;;;524668;28;1477;-73
2023/02/03 10:21:12;;;;;;;2.55;0.60;;;;;;;;;;524360;28;1290;-74
2023/02/03 10:21:36;;;;;;;3.50;0.98;;;;;;;;;;524354;28;1884;-74
2023/02/03 10:21:55;;;;;;;3.47;1.05;;;;;;;;;;523822;28;1316;-74
2023/02/03 10:22:19;;;;;;;3.03;0.70;;;;;;;;;;522532;28;1338;-74
2023/02/03 10:22:43;;;;;;;3.35;0.70;;;;;;;;;;522183;28;1505;-74
2023/02/03 10:23:05;;;;;;;4.30;0.77;;;;;;;;;;522110;28;1730;-74
2023/02/03 10:23:29;;;;;;;4.25;0.80;;;;;;;;;;521054;28;1198;-74
2023/02/03 10:23:47;;;;;;;3.88;0.80;;;;;;;;;;521703;28;1455;-73
2023/02/03 10:24:10;;;;;;;3.50;0.80;;;;;;;;;;520820;28;1552;-75
2023/02/03 10:24:40;;;;;;;3.55;0.85;;;;;;;;;;523782;28;1448;-75
2023/02/03 10:25:31;;;;;;;2.85;0.73;;;;;;;;;;522959;28;1104;-73
2023/02/03 10:25:54;;;;;;;3.83;0.85;;;;;;;;;;518296;28;1349;-73
2023/02/03 10:26:16;;;;;;;3.40;0.80;;;;;;;;;;520874;28;1710;-74
2023/02/03 10:26:32;;;;;;;3.45;0.80;;;;;;;;;;518113;28;1376;-74
2023/02/03 10:26:48;;;;;;;3.20;0.90;;;;;;;;;;517574;28;1624;-75
2023/02/03 10:27:03;;;;;;;3.03;0.90;;;;;;;;;;518598;28;1419;-73
2023/02/03 10:27:21;;;;;;;2.20;0.70;;;;;;;;;;517242;28;1146;-72
2023/02/03 10:27:37;;;;;;;2.05;0.70;;;;;;;;;;518481;28;1448;-74
2023/02/03 10:27:55;;;;;;;3.00;0.80;;;;;;;;;;518267;28;1442;-75
2023/02/03 10:28:17;;;;;;;2.67;0.90;;;;;;;;;;519567;28;1415;-73
2023/02/03 10:28:46;;;;;;;2.38;0.82;;;;;;;;;;517209;28;1409;-75
2023/02/03 10:29:11;;;;;;;2.42;0.70;;;;;;;;;;518140;28;1456;-72
2023/02/03 10:29:41;;;;;;;3.33;0.88;;;;;;;;;;517027;28;1717;-72
2023/02/03 10:30:03;;;;;;;2.42;0.85;;;;;;;;;;519308;28;1429;-73
2023/02/03 10:30:19;;;;;;;3.72;1.00;;;;;;;;;;517715;28;1452;-74
2023/02/03 10:30:44;;;;;;;3.80;1.00;;;;;;;;;;517896;28;1400;-73
2023/02/03 10:31:03;;;;;;;2.80;0.80;;;;;;;;;;514100;28;1745;-73
2023/02/03 10:31:21;;;;;;;2.35;0.80;;;;;;;;;;515885;28;1492;-73
2023/02/03 10:31:37;;;;;;;3.13;0.85;;;;;;;;;;513965;28;1279;-72
2023/02/03 10:31:54;;;;;;;3.13;0.85;;;;;;;;;;515333;28;2653;-72
2023/02/03 10:32:11;;;;;;;2.33;0.80;;;;;;;;;;516407;28;1127;-72
2023/02/03 10:32:26;;;;;;;3.60;0.88;;;;;;;;;;518582;28;1388;-72
2023/02/03 10:32:42;;;;;;;3.73;0.87;;;;;;;;;;517698;28;1658;-72
2023/02/03 10:33:10;;;;;;;3.97;0.82;;;;;;;;;;517373;28;1334;-72
2023/02/03 10:33:29;;;;;;;2.85;0.90;;;;;;;;;;515777;28;1373;-72
2023/02/03 10:33:46;;;;;;;1.95;0.80;;;;;;;;;;515414;28;1351;-71
2023/02/03 10:34:13;;;;;;;3.08;0.90;;;;;;;;;;515863;28;1247;-72
2023/02/03 10:34:28;;;;;;;3.03;0.90;;;;;;;;;;511152;28;1517;-72
2023/02/03 10:34:46;;;;;;;3.07;0.90;;;;;;;;;;514350;28;1196;-72
2023/02/03 10:35:02;;;;;;;2.60;0.80;;;;;;;;;;517985;28;1468;-72
2023/02/03 10:35:18;;;;;;;2.80;0.80;;;;;;;;;;517587;28;1361;-73
2023/02/03 10:35:59;;;;;;;2.97;0.80;;;;;;;;;;514114;28;1379;-72
2023/02/03 10:36:21;;;;;;;2.83;0.63;;;;;;;;;;513905;28;1321;-69
2023/02/03 10:36:54;;;;;;;2.58;0.80;;;;;;;;;;513695;28;1356;-70
2023/02/03 10:37:39;;;;;;;2.75;0.80;;;;;;;;;;519753;28;1333;-72
2023/02/03 10:37:58;;;;;;;3.30;0.90;;;;;;;;;;522796;28;1253;-73
2023/02/03 10:38:23;;;;;;;3.67;0.90;;;;;;;;;;519382;28;1342;-74
2023/02/03 10:38:53;;;;;;;3.38;0.82;;;;;;;;;;516515;28;1409;-74
2023/02/03 10:39:09;;;;;;;3.30;0.98;;;;;;;;;;517858;28;1822;-74
2023/02/03 10:39:36;;;;;;;3.40;0.90;;;;;;;;;;515911;28;1247;-73
2023/02/03 10:39:52;;;;;;;4.50;0.90;;;;;;;;;;514000;28;1367;-75
2023/02/03 10:40:13;;;;;;;3.45;1.02;;;;;;;;;;515970;28;1446;-71
2023/02/03 10:40:28;;;;;;;3.70;1.17;;;;;;;;;;517273;28;1311;-71
2023/02/03 10:40:44;;;;;;;3.40;1.10;;;;;;;;;;518194;28;1881;-72
2023/02/03 10:40:59;;;;;;;2.97;0.90;;;;;;;;;;514431;28;1378;-72
2023/02/03 10:41:17;;;;;;;2.20;0.80;;;;;;;;;;515721;28;1660;-72
2023/02/03 10:41:33;;;;;;;2.10;0.70;;;;;;;;;;514554;28;1234;-73
2023/02/03 10:41:49;;;;;;;2.58;0.80;;;;;;;;;;515820;28;1453;-72
2023/02/03 10:42:05;;;;;;;3.47;0.90;;;;;;;;;;515821;28;1185;-73
2023/02/03 10:42:21;;;;;;;3.20;0.90;;;;;;;;;;514137;28;1366;-72